Petoskey, Michigan
Current Conditions -  °F | °C
As of 3:14 AM on Tuesday 27 Jan 2015 (Local Time) from KMGN Reporting Station
Overcast Overcast  
Wind Chill: 11°   Ceiling: 10000
Heat Index: 18°   Visibility: 10mi
Dew Point: 12°   Wind: 5mph
Humidity: 78%   Direction: 60°ENE
Pressure: 30.07"   Gusts: NA
Location:  45.38°N, 84.96°W
Report Text: KMGN 270814Z AUTO 06004KT 10SM SCT055 OVC100 M07/M11 A3007 RMK AO2 T10801113
Loading
Personal Weather Stations






























Interactive Weather Map New forecast layout! Learn more

10-Day Weather Forecast

Advertisements
Track Severe Weather on mobile